sensor_id;sensor_type;location;lat;lon;timestamp;P1;durP1;ratioP1;P2;durP2;ratioP2
6197;SDS011;3132;42.622;23.328;2023-04-24T00:00:35;14.43;;;12.97;;
6197;SDS011;3132;42.622;23.328;2023-04-24T00:03:00;14.30;;;13.07;;
6197;SDS011;3132;42.622;23.328;2023-04-24T00:05:28;14.90;;;13.63;;
6197;SDS011;3132;42.622;23.328;2023-04-24T00:07:53;14.60;;;13.37;;
6197;SDS011;3132;42.622;23.328;2023-04-24T00:10:20;13.87;;;12.67;;
6197;SDS011;3132;42.622;23.328;2023-04-24T00:12:46;16.03;;;14.23;;
6197;SDS011;3132;42.622;23.328;2023-04-24T00:15:11;14.13;;;12.90;;
6197;SDS011;3132;42.622;23.328;2023-04-24T00:17:37;14.63;;;13.27;;
6197;SDS011;3132;42.622;23.328;2023-04-24T00:20:03;16.17;;;14.80;;
6197;SDS011;3132;42.622;23.328;2023-04-24T00:22:29;15.37;;;13.77;;
6197;SDS011;3132;42.622;23.328;2023-04-24T00:24:56;17.10;;;14.03;;
6197;SDS011;3132;42.622;23.328;2023-04-24T00:27:22;15.30;;;13.73;;
6197;SDS011;3132;42.622;23.328;2023-04-24T00:29:48;16.07;;;14.57;;
6197;SDS011;3132;42.622;23.328;2023-04-24T00:32:13;13.87;;;12.63;;
6197;SDS011;3132;42.622;23.328;2023-04-24T00:34:39;13.57;;;12.40;;
6197;SDS011;3132;42.622;23.328;2023-04-24T00:37:05;14.50;;;13.40;;
6197;SDS011;3132;42.622;23.328;2023-04-24T00:39:31;14.30;;;13.00;;
6197;SDS011;3132;42.622;23.328;2023-04-24T00:41:57;14.40;;;13.20;;
6197;SDS011;3132;42.622;23.328;2023-04-24T00:44:22;13.53;;;12.43;;
6197;SDS011;3132;42.622;23.328;2023-04-24T00:46:48;15.83;;;14.37;;
6197;SDS011;3132;42.622;23.328;2023-04-24T00:49:20;16.93;;;15.20;;
6197;SDS011;3132;42.622;23.328;2023-04-24T00:51:46;16.50;;;14.13;;
6197;SDS011;3132;42.622;23.328;2023-04-24T00:54:12;15.10;;;14.00;;
6197;SDS011;3132;42.622;23.328;2023-04-24T00:56:38;15.87;;;14.60;;
6197;SDS011;3132;42.622;23.328;2023-04-24T00:59:05;15.63;;;14.33;;
6197;SDS011;3132;42.622;23.328;2023-04-24T01:01:31;17.17;;;14.10;;
6197;SDS011;3132;42.622;23.328;2023-04-24T01:03:57;16.63;;;15.13;;
6197;SDS011;3132;42.622;23.328;2023-04-24T01:06:23;14.83;;;13.60;;
6197;SDS011;3132;42.622;23.328;2023-04-24T01:08:52;16.47;;;15.17;;
6197;SDS011;3132;42.622;23.328;2023-04-24T01:11:19;14.87;;;13.67;;
6197;SDS011;3132;42.622;23.328;2023-04-24T01:13:46;14.73;;;13.60;;
6197;SDS011;3132;42.622;23.328;2023-04-24T01:16:13;15.27;;;14.00;;
6197;SDS011;3132;42.622;23.328;2023-04-24T01:18:40;15.47;;;14.07;;
6197;SDS011;3132;42.622;23.328;2023-04-24T01:21:06;16.50;;;15.10;;
6197;SDS011;3132;42.622;23.328;2023-04-24T01:23:33;15.73;;;14.13;;
6197;SDS011;3132;42.622;23.328;2023-04-24T01:25:59;16.20;;;14.70;;
6197;SDS011;3132;42.622;23.328;2023-04-24T01:28:24;15.77;;;14.17;;
6197;SDS011;3132;42.622;23.328;2023-04-24T01:30:50;16.47;;;15.03;;
6197;SDS011;3132;42.622;23.328;2023-04-24T01:33:16;17.70;;;16.10;;
6197;SDS011;3132;42.622;23.328;2023-04-24T01:35:42;17.80;;;16.37;;
6197;SDS011;3132;42.622;23.328;2023-04-24T01:38:07;17.87;;;16.07;;
6197;SDS011;3132;42.622;23.328;2023-04-24T01:40:33;18.90;;;17.10;;
6197;SDS011;3132;42.622;23.328;2023-04-24T01:42:58;18.87;;;17.17;;
6197;SDS011;3132;42.622;23.328;2023-04-24T01:45:24;18.87;;;17.37;;
6197;SDS011;3132;42.622;23.328;2023-04-24T01:47:50;19.83;;;18.13;;
6197;SDS011;3132;42.622;23.328;2023-04-24T01:50:15;18.57;;;16.77;;
6197;SDS011;3132;42.622;23.328;2023-04-24T01:52:41;18.17;;;16.43;;
6197;SDS011;3132;42.622;23.328;2023-04-24T01:55:06;17.40;;;15.83;;
6197;SDS011;3132;42.622;23.328;2023-04-24T01:57:32;18.07;;;16.47;;
6197;SDS011;3132;42.622;23.328;2023-04-24T01:59:58;18.57;;;16.67;;
6197;SDS011;3132;42.622;23.328;2023-04-24T02:02:24;17.70;;;15.90;;
6197;SDS011;3132;42.622;23.328;2023-04-24T02:04:52;18.87;;;17.07;;
6197;SDS011;3132;42.622;23.328;2023-04-24T02:07:18;18.53;;;16.93;;
6197;SDS011;3132;42.622;23.328;2023-04-24T02:09:43;17.13;;;15.63;;
6197;SDS011;3132;42.622;23.328;2023-04-24T02:12:08;17.90;;;16.40;;
6197;SDS011;3132;42.622;23.328;2023-04-24T02:14:34;19.87;;;17.80;;
6197;SDS011;3132;42.622;23.328;2023-04-24T02:16:59;17.77;;;15.97;;
6197;SDS011;3132;42.622;23.328;2023-04-24T02:19:25;17.67;;;16.07;;
6197;SDS011;3132;42.622;23.328;2023-04-24T02:21:51;17.83;;;16.33;;
6197;SDS011;3132;42.622;23.328;2023-04-24T02:24:17;18.17;;;16.57;;
6197;SDS011;3132;42.622;23.328;2023-04-24T02:26:42;18.20;;;16.57;;
6197;SDS011;3132;42.622;23.328;2023-04-24T02:29:07;17.13;;;15.63;;
6197;SDS011;3132;42.622;23.328;2023-04-24T02:31:33;15.20;;;13.83;;
6197;SDS011;3132;42.622;23.328;2023-04-24T02:33:58;15.70;;;14.50;;
6197;SDS011;3132;42.622;23.328;2023-04-24T02:36:24;17.87;;;16.37;;
6197;SDS011;3132;42.622;23.328;2023-04-24T02:38:50;16.23;;;14.90;;
6197;SDS011;3132;42.622;23.328;2023-04-24T02:41:15;16.47;;;14.97;;
6197;SDS011;3132;42.622;23.328;2023-04-24T02:43:41;17.10;;;15.80;;
6197;SDS011;3132;42.622;23.328;2023-04-24T02:46:06;16.03;;;14.73;;
6197;SDS011;3132;42.622;23.328;2023-04-24T02:48:31;15.00;;;13.50;;
6197;SDS011;3132;42.622;23.328;2023-04-24T02:50:57;17.03;;;15.63;;
6197;SDS011;3132;42.622;23.328;2023-04-24T02:53:22;16.30;;;15.00;;
6197;SDS011;3132;42.622;23.328;2023-04-24T02:55:48;16.87;;;15.47;;
6197;SDS011;3132;42.622;23.328;2023-04-24T02:58:13;15.70;;;14.50;;
6197;SDS011;3132;42.622;23.328;2023-04-24T03:00:39;15.40;;;14.13;;
6197;SDS011;3132;42.622;23.328;2023-04-24T03:03:05;16.93;;;15.50;;
6197;SDS011;3132;42.622;23.328;2023-04-24T03:05:31;15.93;;;14.73;;
6197;SDS011;3132;42.622;23.328;2023-04-24T03:07:57;15.17;;;13.93;;
6197;SDS011;3132;42.622;23.328;2023-04-24T03:10:22;17.03;;;15.73;;
6197;SDS011;3132;42.622;23.328;2023-04-24T03:12:47;15.33;;;14.10;;
6197;SDS011;3132;42.622;23.328;2023-04-24T03:15:13;16.87;;;15.30;;
6197;SDS011;3132;42.622;23.328;2023-04-24T03:17:38;16.83;;;15.53;;
6197;SDS011;3132;42.622;23.328;2023-04-24T03:20:04;16.40;;;15.10;;
6197;SDS011;3132;42.622;23.328;2023-04-24T03:22:33;15.37;;;14.03;;
6197;SDS011;3132;42.622;23.328;2023-04-24T03:24:59;16.40;;;15.00;;
6197;SDS011;3132;42.622;23.328;2023-04-24T03:27:25;16.90;;;15.50;;
6197;SDS011;3132;42.622;23.328;2023-04-24T03:29:50;16.63;;;15.30;;
6197;SDS011;3132;42.622;23.328;2023-04-24T03:32:23;15.57;;;13.97;;
6197;SDS011;3132;42.622;23.328;2023-04-24T03:34:48;17.00;;;15.70;;
6197;SDS011;3132;42.622;23.328;2023-04-24T03:37:15;16.80;;;15.40;;
6197;SDS011;3132;42.622;23.328;2023-04-24T03:39:41;15.83;;;14.43;;
6197;SDS011;3132;42.622;23.328;2023-04-24T03:42:06;14.87;;;13.73;;
6197;SDS011;3132;42.622;23.328;2023-04-24T03:44:33;16.40;;;14.90;;
6197;SDS011;3132;42.622;23.328;2023-04-24T03:46:59;15.60;;;14.40;;
6197;SDS011;3132;42.622;23.328;2023-04-24T03:49:24;16.07;;;14.40;;
6197;SDS011;3132;42.622;23.328;2023-04-24T03:51:50;17.50;;;16.17;;
6197;SDS011;3132;42.622;23.328;2023-04-24T03:54:17;16.57;;;15.00;;
6197;SDS011;3132;42.622;23.328;2023-04-24T03:56:42;15.73;;;14.33;;
6197;SDS011;3132;42.622;23.328;2023-04-24T03:59:08;15.13;;;14.03;;
6197;SDS011;3132;42.622;23.328;2023-04-24T04:01:33;15.27;;;14.17;;
6197;SDS011;3132;42.622;23.328;2023-04-24T04:04:02;15.87;;;14.67;;
6197;SDS011;3132;42.622;23.328;2023-04-24T04:06:27;17.20;;;15.50;;
6197;SDS011;3132;42.622;23.328;2023-04-24T04:08:53;16.50;;;15.10;;
6197;SDS011;3132;42.622;23.328;2023-04-24T04:11:19;16.43;;;15.23;;
6197;SDS011;3132;42.622;23.328;2023-04-24T04:13:44;16.63;;;15.20;;
6197;SDS011;3132;42.622;23.328;2023-04-24T04:16:12;16.10;;;14.87;;
6197;SDS011;3132;42.622;23.328;2023-04-24T04:18:38;14.53;;;13.43;;
6197;SDS011;3132;42.622;23.328;2023-04-24T04:21:03;14.40;;;13.40;;
6197;SDS011;3132;42.622;23.328;2023-04-24T04:23:29;14.50;;;13.17;;
6197;SDS011;3132;42.622;23.328;2023-04-24T04:25:54;15.40;;;14.20;;
6197;SDS011;3132;42.622;23.328;2023-04-24T04:28:20;15.20;;;14.10;;
6197;SDS011;3132;42.622;23.328;2023-04-24T04:30:46;17.50;;;15.77;;
6197;SDS011;3132;42.622;23.328;2023-04-24T04:33:12;15.90;;;14.70;;
6197;SDS011;3132;42.622;23.328;2023-04-24T04:35:38;17.00;;;15.63;;
6197;SDS011;3132;42.622;23.328;2023-04-24T04:38:03;15.47;;;14.20;;
6197;SDS011;3132;42.622;23.328;2023-04-24T04:40:29;16.07;;;14.43;;
6197;SDS011;3132;42.622;23.328;2023-04-24T04:42:55;16.63;;;15.23;;
6197;SDS011;3132;42.622;23.328;2023-04-24T04:45:20;20.50;;;14.60;;
6197;SDS011;3132;42.622;23.328;2023-04-24T04:47:46;16.07;;;14.37;;
6197;SDS011;3132;42.622;23.328;2023-04-24T04:50:12;16.50;;;15.10;;
6197;SDS011;3132;42.622;23.328;2023-04-24T04:52:37;14.87;;;13.67;;
6197;SDS011;3132;42.622;23.328;2023-04-24T04:55:03;15.60;;;14.27;;
6197;SDS011;3132;42.622;23.328;2023-04-24T04:57:28;14.80;;;13.50;;
6197;SDS011;3132;42.622;23.328;2023-04-24T04:59:55;15.43;;;14.13;;
6197;SDS011;3132;42.622;23.328;2023-04-24T05:02:20;15.80;;;14.40;;
6197;SDS011;3132;42.622;23.328;2023-04-24T05:04:46;17.07;;;14.70;;
6197;SDS011;3132;42.622;23.328;2023-04-24T05:07:11;17.70;;;15.47;;
6197;SDS011;3132;42.622;23.328;2023-04-24T05:09:37;17.23;;;15.73;;
6197;SDS011;3132;42.622;23.328;2023-04-24T05:12:02;24.20;;;22.23;;
6197;SDS011;3132;42.622;23.328;2023-04-24T05:14:28;15.53;;;14.23;;
6197;SDS011;3132;42.622;23.328;2023-04-24T05:16:53;15.53;;;14.33;;
6197;SDS011;3132;42.622;23.328;2023-04-24T05:19:18;16.90;;;15.50;;
6197;SDS011;3132;42.622;23.328;2023-04-24T05:21:44;18.17;;;16.23;;
6197;SDS011;3132;42.622;23.328;2023-04-24T05:24:10;16.23;;;14.87;;
6197;SDS011;3132;42.622;23.328;2023-04-24T05:26:35;17.53;;;15.77;;
6197;SDS011;3132;42.622;23.328;2023-04-24T05:29:01;17.97;;;15.67;;
6197;SDS011;3132;42.622;23.328;2023-04-24T05:31:27;17.10;;;15.43;;
6197;SDS011;3132;42.622;23.328;2023-04-24T05:33:52;17.40;;;15.83;;
6197;SDS011;3132;42.622;23.328;2023-04-24T05:36:18;18.20;;;16.30;;
6197;SDS011;3132;42.622;23.328;2023-04-24T05:38:43;17.27;;;15.47;;
6197;SDS011;3132;42.622;23.328;2023-04-24T05:41:08;18.00;;;16.37;;
6197;SDS011;3132;42.622;23.328;2023-04-24T05:43:34;17.37;;;15.57;;
6197;SDS011;3132;42.622;23.328;2023-04-24T05:45:59;22.53;;;15.30;;
6197;SDS011;3132;42.622;23.328;2023-04-24T05:48:25;16.37;;;14.87;;
6197;SDS011;3132;42.622;23.328;2023-04-24T05:50:51;17.57;;;15.87;;
6197;SDS011;3132;42.622;23.328;2023-04-24T05:53:17;17.10;;;14.40;;
6197;SDS011;3132;42.622;23.328;2023-04-24T05:55:43;18.00;;;16.40;;
6197;SDS011;3132;42.622;23.328;2023-04-24T05:58:08;17.57;;;15.70;;
6197;SDS011;3132;42.622;23.328;2023-04-24T06:00:34;16.90;;;15.50;;
6197;SDS011;3132;42.622;23.328;2023-04-24T06:03:00;17.13;;;15.60;;
6197;SDS011;3132;42.622;23.328;2023-04-24T06:05:25;15.40;;;14.03;;
6197;SDS011;3132;42.622;23.328;2023-04-24T06:07:51;15.73;;;14.20;;
6197;SDS011;3132;42.622;23.328;2023-04-24T06:10:17;14.33;;;13.13;;
6197;SDS011;3132;42.622;23.328;2023-04-24T06:12:42;15.27;;;13.97;;
6197;SDS011;3132;42.622;23.328;2023-04-24T06:15:08;16.23;;;13.83;;
6197;SDS011;3132;42.622;23.328;2023-04-24T06:17:33;17.23;;;14.00;;
6197;SDS011;3132;42.622;23.328;2023-04-24T06:19:59;17.07;;;15.27;;
6197;SDS011;3132;42.622;23.328;2023-04-24T06:22:24;17.30;;;15.57;;
6197;SDS011;3132;42.622;23.328;2023-04-24T06:24:49;16.83;;;15.10;;
6197;SDS011;3132;42.622;23.328;2023-04-24T06:27:15;16.07;;;14.33;;
6197;SDS011;3132;42.622;23.328;2023-04-24T06:29:40;16.60;;;14.83;;
6197;SDS011;3132;42.622;23.328;2023-04-24T06:32:05;16.97;;;15.23;;
6197;SDS011;3132;42.622;23.328;2023-04-24T06:34:31;17.27;;;15.63;;
6197;SDS011;3132;42.622;23.328;2023-04-24T06:36:58;17.30;;;15.10;;
6197;SDS011;3132;42.622;23.328;2023-04-24T06:39:23;19.17;;;15.77;;
6197;SDS011;3132;42.622;23.328;2023-04-24T06:41:49;17.57;;;15.13;;
6197;SDS011;3132;42.622;23.328;2023-04-24T06:44:14;16.83;;;15.13;;
6197;SDS011;3132;42.622;23.328;2023-04-24T06:46:40;17.87;;;16.27;;
6197;SDS011;3132;42.622;23.328;2023-04-24T06:49:06;18.60;;;13.97;;
6197;SDS011;3132;42.622;23.328;2023-04-24T06:51:31;15.80;;;14.30;;
6197;SDS011;3132;42.622;23.328;2023-04-24T06:53:58;15.73;;;14.27;;
6197;SDS011;3132;42.622;23.328;2023-04-24T06:56:24;17.90;;;15.37;;
6197;SDS011;3132;42.622;23.328;2023-04-24T06:58:50;17.57;;;14.07;;
6197;SDS011;3132;42.622;23.328;2023-04-24T07:01:16;16.00;;;14.37;;
6197;SDS011;3132;42.622;23.328;2023-04-24T07:03:42;14.30;;;12.87;;
6197;SDS011;3132;42.622;23.328;2023-04-24T07:06:07;25.03;;;14.77;;
6197;SDS011;3132;42.622;23.328;2023-04-24T07:08:35;16.00;;;12.97;;
6197;SDS011;3132;42.622;23.328;2023-04-24T07:11:01;15.10;;;13.87;;
6197;SDS011;3132;42.622;23.328;2023-04-24T07:13:27;15.40;;;14.10;;
6197;SDS011;3132;42.622;23.328;2023-04-24T07:15:53;15.30;;;14.10;;
6197;SDS011;3132;42.622;23.328;2023-04-24T07:18:20;11.87;;;11.00;;
6197;SDS011;3132;42.622;23.328;2023-04-24T07:20:46;13.30;;;12.07;;
6197;SDS011;3132;42.622;23.328;2023-04-24T07:23:12;12.60;;;11.70;;
6197;SDS011;3132;42.622;23.328;2023-04-24T07:25:37;12.73;;;11.87;;
6197;SDS011;3132;42.622;23.328;2023-04-24T07:28:03;12.50;;;11.40;;
6197;SDS011;3132;42.622;23.328;2023-04-24T07:30:29;12.37;;;11.37;;
6197;SDS011;3132;42.622;23.328;2023-04-24T07:32:55;12.60;;;11.60;;
6197;SDS011;3132;42.622;23.328;2023-04-24T07:35:20;12.77;;;11.67;;
6197;SDS011;3132;42.622;23.328;2023-04-24T07:37:46;12.30;;;11.20;;
6197;SDS011;3132;42.622;23.328;2023-04-24T07:40:12;13.07;;;11.87;;
6197;SDS011;3132;42.622;23.328;2023-04-24T07:42:38;14.33;;;12.67;;
6197;SDS011;3132;42.622;23.328;2023-04-24T07:45:03;12.90;;;11.90;;
6197;SDS011;3132;42.622;23.328;2023-04-24T07:47:30;13.03;;;11.63;;
6197;SDS011;3132;42.622;23.328;2023-04-24T07:49:56;13.90;;;12.53;;
6197;SDS011;3132;42.622;23.328;2023-04-24T07:52:21;14.07;;;12.93;;
6197;SDS011;3132;42.622;23.328;2023-04-24T07:54:47;12.77;;;11.67;;
6197;SDS011;3132;42.622;23.328;2023-04-24T07:57:12;12.83;;;11.83;;
6197;SDS011;3132;42.622;23.328;2023-04-24T07:59:38;13.83;;;12.60;;
6197;SDS011;3132;42.622;23.328;2023-04-24T08:02:04;12.33;;;11.33;;
6197;SDS011;3132;42.622;23.328;2023-04-24T08:04:31;13.90;;;12.80;;
6197;SDS011;3132;42.622;23.328;2023-04-24T08:06:56;14.37;;;12.87;;
6197;SDS011;3132;42.622;23.328;2023-04-24T08:09:22;13.67;;;12.60;;
6197;SDS011;3132;42.622;23.328;2023-04-24T08:11:47;13.13;;;12.23;;
6197;SDS011;3132;42.622;23.328;2023-04-24T08:14:12;13.47;;;12.23;;
6197;SDS011;3132;42.622;23.328;2023-04-24T08:16:39;14.13;;;12.47;;
6197;SDS011;3132;42.622;23.328;2023-04-24T08:19:05;13.33;;;12.23;;
6197;SDS011;3132;42.622;23.328;2023-04-24T08:21:31;15.37;;;12.00;;
6197;SDS011;3132;42.622;23.328;2023-04-24T08:23:57;14.37;;;13.07;;
6197;SDS011;3132;42.622;23.328;2023-04-24T08:26:22;14.70;;;13.53;;
6197;SDS011;3132;42.622;23.328;2023-04-24T08:28:48;13.17;;;12.23;;
6197;SDS011;3132;42.622;23.328;2023-04-24T08:31:13;15.23;;;13.93;;
6197;SDS011;3132;42.622;23.328;2023-04-24T08:33:38;13.83;;;12.37;;
6197;SDS011;3132;42.622;23.328;2023-04-24T08:36:05;14.40;;;13.00;;
6197;SDS011;3132;42.622;23.328;2023-04-24T08:38:32;19.13;;;12.90;;
6197;SDS011;3132;42.622;23.328;2023-04-24T08:40:59;14.17;;;13.00;;
6197;SDS011;3132;42.622;23.328;2023-04-24T08:43:26;15.17;;;12.90;;
6197;SDS011;3132;42.622;23.328;2023-04-24T08:45:52;16.00;;;14.10;;
6197;SDS011;3132;42.622;23.328;2023-04-24T08:48:20;14.87;;;13.60;;
6197;SDS011;3132;42.622;23.328;2023-04-24T08:50:47;15.07;;;13.77;;
6197;SDS011;3132;42.622;23.328;2023-04-24T08:53:15;14.67;;;13.37;;
6197;SDS011;3132;42.622;23.328;2023-04-24T08:55:40;14.07;;;12.77;;
6197;SDS011;3132;42.622;23.328;2023-04-24T08:58:08;13.77;;;12.63;;
6197;SDS011;3132;42.622;23.328;2023-04-24T09:00:34;13.50;;;12.23;;
6197;SDS011;3132;42.622;23.328;2023-04-24T09:03:00;14.73;;;13.43;;
6197;SDS011;3132;42.622;23.328;2023-04-24T09:05:27;13.73;;;12.57;;
6197;SDS011;3132;42.622;23.328;2023-04-24T09:07:53;13.73;;;12.57;;
6197;SDS011;3132;42.622;23.328;2023-04-24T09:10:20;14.80;;;13.60;;
6197;SDS011;3132;42.622;23.328;2023-04-24T09:12:47;14.00;;;12.90;;
6197;SDS011;3132;42.622;23.328;2023-04-24T09:15:12;13.60;;;12.50;;
6197;SDS011;3132;42.622;23.328;2023-04-24T09:17:38;14.13;;;12.93;;
6197;SDS011;3132;42.622;23.328;2023-04-24T09:20:04;13.73;;;12.53;;
6197;SDS011;3132;42.622;23.328;2023-04-24T09:22:30;14.17;;;12.77;;
6197;SDS011;3132;42.622;23.328;2023-04-24T09:25:02;13.87;;;12.50;;
6197;SDS011;3132;42.622;23.328;2023-04-24T09:27:30;13.07;;;11.73;;
6197;SDS011;3132;42.622;23.328;2023-04-24T09:29:56;15.40;;;12.23;;
6197;SDS011;3132;42.622;23.328;2023-04-24T09:32:22;13.57;;;12.30;;
6197;SDS011;3132;42.622;23.328;2023-04-24T09:35:04;13.33;;;12.03;;
6197;SDS011;3132;42.622;23.328;2023-04-24T09:37:45;13.47;;;12.07;;
6197;SDS011;3132;42.622;23.328;2023-04-24T09:40:20;13.43;;;12.17;;
6197;SDS011;3132;42.622;23.328;2023-04-24T09:42:54;13.33;;;12.20;;
6197;SDS011;3132;42.622;23.328;2023-04-24T09:45:21;13.30;;;12.20;;
6197;SDS011;3132;42.622;23.328;2023-04-24T09:47:51;13.27;;;12.17;;
6197;SDS011;3132;42.622;23.328;2023-04-24T09:50:17;14.77;;;12.10;;
6197;SDS011;3132;42.622;23.328;2023-04-24T09:52:43;18.73;;;12.83;;
6197;SDS011;3132;42.622;23.328;2023-04-24T09:55:12;12.53;;;11.43;;
6197;SDS011;3132;42.622;23.328;2023-04-24T09:57:49;13.53;;;12.33;;
6197;SDS011;3132;42.622;23.328;2023-04-24T10:00:21;13.87;;;11.83;;
6197;SDS011;3132;42.622;23.328;2023-04-24T10:03:01;15.50;;;11.43;;
6197;SDS011;3132;42.622;23.328;2023-04-24T10:05:31;11.70;;;10.67;;
6197;SDS011;3132;42.622;23.328;2023-04-24T10:07:59;13.03;;;11.27;;
6197;SDS011;3132;42.622;23.328;2023-04-24T10:10:26;12.43;;;11.40;;
6197;SDS011;3132;42.622;23.328;2023-04-24T10:12:52;12.53;;;11.43;;
6197;SDS011;3132;42.622;23.328;2023-04-24T10:15:18;12.47;;;11.23;;
6197;SDS011;3132;42.622;23.328;2023-04-24T10:17:47;12.33;;;11.43;;
6197;SDS011;3132;42.622;23.328;2023-04-24T10:20:17;12.57;;;11.57;;
6197;SDS011;3132;42.622;23.328;2023-04-24T10:22:57;11.50;;;10.50;;
6197;SDS011;3132;42.622;23.328;2023-04-24T10:25:24;12.73;;;11.77;;
6197;SDS011;3132;42.622;23.328;2023-04-24T10:27:59;12.47;;;11.20;;
6197;SDS011;3132;42.622;23.328;2023-04-24T10:30:26;12.27;;;11.20;;
6197;SDS011;3132;42.622;23.328;2023-04-24T10:32:53;12.37;;;11.17;;
6197;SDS011;3132;42.622;23.328;2023-04-24T10:35:19;11.90;;;10.87;;
6197;SDS011;3132;42.622;23.328;2023-04-24T10:37:52;12.83;;;11.83;;
6197;SDS011;3132;42.622;23.328;2023-04-24T10:40:33;12.47;;;11.37;;
6197;SDS011;3132;42.622;23.328;2023-04-24T10:43:02;12.00;;;11.00;;
6197;SDS011;3132;42.622;23.328;2023-04-24T10:45:31;11.03;;;10.13;;
6197;SDS011;3132;42.622;23.328;2023-04-24T10:48:08;14.63;;;10.00;;
6197;SDS011;3132;42.622;23.328;2023-04-24T10:50:42;10.90;;;10.10;;
6197;SDS011;3132;42.622;23.328;2023-04-24T10:53:16;11.13;;;10.27;;
6197;SDS011;3132;42.622;23.328;2023-04-24T10:55:50;11.17;;;10.27;;
6197;SDS011;3132;42.622;23.328;2023-04-24T10:58:17;11.07;;;10.37;;
6197;SDS011;3132;42.622;23.328;2023-04-24T11:00:57;10.77;;;10.07;;
6197;SDS011;3132;42.622;23.328;2023-04-24T11:03:30;11.10;;;10.30;;
6197;SDS011;3132;42.622;23.328;2023-04-24T11:06:07;10.80;;;10.10;;
6197;SDS011;3132;42.622;23.328;2023-04-24T11:11:13;10.47;;;9.83;;
6197;SDS011;3132;42.622;23.328;2023-04-24T11:16:30;11.80;;;10.83;;
6197;SDS011;3132;42.622;23.328;2023-04-24T11:21:45;11.03;;;10.23;;
6197;SDS011;3132;42.622;23.328;2023-04-24T11:24:22;11.13;;;10.50;;
6197;SDS011;3132;42.622;23.328;2023-04-24T11:27:13;10.70;;;10.10;;
6197;SDS011;3132;42.622;23.328;2023-04-24T11:29:42;12.07;;;11.17;;
6197;SDS011;3132;42.622;23.328;2023-04-24T11:32:15;10.83;;;10.13;;
6197;SDS011;3132;42.622;23.328;2023-04-24T11:35:16;11.10;;;9.00;;
6197;SDS011;3132;42.622;23.328;2023-04-24T11:37:45;12.57;;;10.67;;
6197;SDS011;3132;42.622;23.328;2023-04-24T11:40:15;12.07;;;11.17;;
6197;SDS011;3132;42.622;23.328;2023-04-24T11:42:43;12.60;;;11.67;;
6197;SDS011;3132;42.622;23.328;2023-04-24T11:45:11;12.67;;;11.67;;
6197;SDS011;3132;42.622;23.328;2023-04-24T11:47:38;14.30;;;12.97;;
6197;SDS011;3132;42.622;23.328;2023-04-24T11:50:05;13.60;;;12.70;;
6197;SDS011;3132;42.622;23.328;2023-04-24T11:52:33;13.90;;;12.90;;
6197;SDS011;3132;42.622;23.328;2023-04-24T11:55:02;12.17;;;11.30;;
6197;SDS011;3132;42.622;23.328;2023-04-24T11:57:28;12.53;;;11.50;;
6197;SDS011;3132;42.622;23.328;2023-04-24T11:59:58;12.30;;;11.33;;
6197;SDS011;3132;42.622;23.328;2023-04-24T12:02:25;12.17;;;11.37;;
6197;SDS011;3132;42.622;23.328;2023-04-24T12:04:52;12.83;;;11.90;;
6197;SDS011;3132;42.622;23.328;2023-04-24T12:07:18;12.20;;;11.37;;
6197;SDS011;3132;42.622;23.328;2023-04-24T12:12:10;11.27;;;10.47;;
6197;SDS011;3132;42.622;23.328;2023-04-24T12:14:47;12.07;;;11.17;;
6197;SDS011;3132;42.622;23.328;2023-04-24T12:17:15;10.40;;;9.80;;
6197;SDS011;3132;42.622;23.328;2023-04-24T12:19:48;10.47;;;9.70;;
6197;SDS011;3132;42.622;23.328;2023-04-24T12:22:15;11.00;;;10.40;;
6197;SDS011;3132;42.622;23.328;2023-04-24T12:24:57;10.83;;;10.03;;
6197;SDS011;3132;42.622;23.328;2023-04-24T12:27:22;10.73;;;10.13;;
6197;SDS011;3132;42.622;23.328;2023-04-24T12:29:57;10.83;;;10.23;;
6197;SDS011;3132;42.622;23.328;2023-04-24T12:32:25;11.70;;;10.90;;
6197;SDS011;3132;42.622;23.328;2023-04-24T12:34:51;11.67;;;10.93;;
6197;SDS011;3132;42.622;23.328;2023-04-24T12:37:17;11.73;;;10.87;;
6197;SDS011;3132;42.622;23.328;2023-04-24T12:42:28;12.53;;;11.63;;
6197;SDS011;3132;42.622;23.328;2023-04-24T12:44:59;12.30;;;11.47;;
6197;SDS011;3132;42.622;23.328;2023-04-24T12:47:27;14.03;;;11.37;;
6197;SDS011;3132;42.622;23.328;2023-04-24T12:49:53;13.07;;;12.07;;
6197;SDS011;3132;42.622;23.328;2023-04-24T12:52:20;12.07;;;11.27;;
6197;SDS011;3132;42.622;23.328;2023-04-24T12:54:49;12.13;;;11.30;;
6197;SDS011;3132;42.622;23.328;2023-04-24T12:57:16;11.70;;;10.93;;
6197;SDS011;3132;42.622;23.328;2023-04-24T12:59:42;12.17;;;11.43;;
6197;SDS011;3132;42.622;23.328;2023-04-24T13:02:08;10.30;;;9.43;;
6197;SDS011;3132;42.622;23.328;2023-04-24T13:04:35;10.90;;;10.23;;
6197;SDS011;3132;42.622;23.328;2023-04-24T13:07:00;12.77;;;11.53;;
6197;SDS011;3132;42.622;23.328;2023-04-24T13:09:25;11.23;;;10.43;;
6197;SDS011;3132;42.622;23.328;2023-04-24T13:11:51;12.33;;;11.33;;
6197;SDS011;3132;42.622;23.328;2023-04-24T13:14:16;11.37;;;10.60;;
6197;SDS011;3132;42.622;23.328;2023-04-24T13:16:42;12.43;;;11.40;;
6197;SDS011;3132;42.622;23.328;2023-04-24T13:19:07;12.23;;;11.30;;
6197;SDS011;3132;42.622;23.328;2023-04-24T13:21:32;11.13;;;10.40;;
6197;SDS011;3132;42.622;23.328;2023-04-24T13:23:58;10.17;;;9.33;;
6197;SDS011;3132;42.622;23.328;2023-04-24T13:26:23;10.33;;;9.57;;
6197;SDS011;3132;42.622;23.328;2023-04-24T13:28:49;10.33;;;9.63;;
6197;SDS011;3132;42.622;23.328;2023-04-24T13:31:14;11.33;;;10.33;;
6197;SDS011;3132;42.622;23.328;2023-04-24T13:33:40;10.90;;;10.30;;
6197;SDS011;3132;42.622;23.328;2023-04-24T13:36:05;10.77;;;9.97;;
6197;SDS011;3132;42.622;23.328;2023-04-24T13:38:31;11.67;;;10.87;;
6197;SDS011;3132;42.622;23.328;2023-04-24T13:40:56;11.30;;;10.40;;
6197;SDS011;3132;42.622;23.328;2023-04-24T13:43:22;11.00;;;10.10;;
6197;SDS011;3132;42.622;23.328;2023-04-24T13:45:47;10.30;;;9.40;;
6197;SDS011;3132;42.622;23.328;2023-04-24T13:48:13;10.93;;;10.17;;
6197;SDS011;3132;42.622;23.328;2023-04-24T13:50:40;11.97;;;11.07;;
6197;SDS011;3132;42.622;23.328;2023-04-24T13:53:07;10.57;;;9.80;;
6197;SDS011;3132;42.622;23.328;2023-04-24T13:55:32;11.30;;;10.57;;
6197;SDS011;3132;42.622;23.328;2023-04-24T13:57:58;11.80;;;11.00;;
6197;SDS011;3132;42.622;23.328;2023-04-24T14:00:23;11.97;;;10.80;;
6197;SDS011;3132;42.622;23.328;2023-04-24T14:02:49;11.87;;;10.77;;
6197;SDS011;3132;42.622;23.328;2023-04-24T14:05:14;10.90;;;10.20;;
6197;SDS011;3132;42.622;23.328;2023-04-24T14:07:43;10.37;;;9.77;;
6197;SDS011;3132;42.622;23.328;2023-04-24T14:10:08;11.07;;;10.20;;
6197;SDS011;3132;42.622;23.328;2023-04-24T14:12:34;11.03;;;10.33;;
6197;SDS011;3132;42.622;23.328;2023-04-24T14:15:00;10.27;;;9.43;;
6197;SDS011;3132;42.622;23.328;2023-04-24T14:17:26;11.85;;;10.73;;
6197;SDS011;3132;42.622;23.328;2023-04-24T14:19:51;10.67;;;9.77;;
6197;SDS011;3132;42.622;23.328;2023-04-24T14:22:20;10.43;;;9.68;;
6197;SDS011;3132;42.622;23.328;2023-04-24T14:24:46;9.52;;;9.02;;
6197;SDS011;3132;42.622;23.328;2023-04-24T14:27:11;9.52;;;8.93;;
6197;SDS011;3132;42.622;23.328;2023-04-24T14:29:36;10.77;;;10.05;;
6197;SDS011;3132;42.622;23.328;2023-04-24T14:32:02;10.73;;;9.98;;
6197;SDS011;3132;42.622;23.328;2023-04-24T14:34:27;10.75;;;10.00;;
6197;SDS011;3132;42.622;23.328;2023-04-24T14:36:52;10.73;;;9.82;;
6197;SDS011;3132;42.622;23.328;2023-04-24T14:39:18;10.77;;;10.02;;
6197;SDS011;3132;42.622;23.328;2023-04-24T14:41:44;11.20;;;10.40;;
6197;SDS011;3132;42.622;23.328;2023-04-24T14:44:09;11.03;;;10.33;;
6197;SDS011;3132;42.622;23.328;2023-04-24T14:46:35;10.80;;;10.20;;